Roberts, MT (59070)

10:52 PM MDT on April 25, 2017 (GMT -0600)
Clear Creek Rd, Roberts, MT 59070 | | Change Station

Elev 4455 ft 45.38 °N, 109.14 °W | Updated 7 seconds ago

Partly Cloudy
Partly Cloudy
32.2 °F
Feels Like 32 °F
N
0.0
Wind Variable Wind from South
Gusts 0.0 mph

Today
High -- | Low -- °F
--% Chance of Precip.
Yesterday
High -- | Low -- °F
Precip. -- in
Pressure 29.96 in
Visibility 10.0 miles
Clouds Overcast 1600 ft
Windchill 32 °F
Dew Point 32 °F
Humidity 99%
Rainfall 0.00 in
Snow Depth Not available.
6:14 AM 8:16 PM
Waning Crescent, 0% visible
METAR KBIL 260353Z 14005KT 10SM OVC016 02/M02 A2988 RMK AO2 SLP143 T00221017
Pressure 29.96 in
Visibility 10.0 miles
Clouds Overcast 1600 ft
Windchill 32 °F
Dew Point 32 °F
Humidity 99%
Rainfall 0.00 in
Snow Depth Not available.
6:14 AM 8:16 PM
Waning Crescent, 0% visible
METAR KBIL 260353Z 14005KT 10SM OVC016 02/M02 A2988 RMK AO2 SLP143 T00221017

Get Severe Weather Alerts

Thanks for signing up!

Be on the lookout for a verification email in your inbox.

You'll start receiving the daily forecast at 8 AM.

×

10-Day Weather Forecast

Almanac

Astronomy

Apr. 25, 2017 Rise Set
Actual Time
Civil Twilight
Nautical Twilight
Astronomical Twilight
Moon
Length of Visible Light
Length of Day
Tomorrow will be .
, % of the Moon is Illuminated

Today's Extremes

State Highs State Lows

Community

WunderPhotos

WunderBlog® & News

Nearby

Air Quality

  Air Quality AQ Index Pollutant
Not available.

Snow Depth

Station Depth Elevation

Earthquake Activity

City Distance Mag. Time & Date
Minimum magnitude displayed is 2.5.

Coastal Water Temperatures

Place Temperature

Stations

Nearby Weather Stations

Station Location Temp. Windchill Dew Point Humidity Wind Precip. Elev Updated Type
                   

Watches & Warnings

There are currently no watches in effect.